Time;durP1;ratioP1;P1;durP2;ratioP2;P2;SDS_P1;SDS_P2;PMS_P1;PMS_P2;Temp;Humidity;BMP_temperature;BMP_pressure;BME280_temperature;BME280_humidity;BME280_pressure;Samples;Min_cycle;Max_cycle;Signal;HPM_P1;HPM_P2
2022/07/08 00:00:05;;;;;;;4.47;3.83;;;;;;;15.14;100.00;97161.00;5029769;28;106654;-66
2022/07/08 00:02:39;;;;;;;4.70;3.70;;;;;;;15.06;100.00;97170.38;5027824;28;102448;-66
2022/07/08 00:05:12;;;;;;;4.23;3.90;;;;;;;15.05;100.00;97162.59;5031245;28;101745;-66
2022/07/08 00:07:39;;;;;;;3.90;3.60;;;;;;;15.06;100.00;97165.03;5029780;28;105978;-66
2022/07/08 00:10:07;;;;;;;4.90;4.00;;;;;;;15.09;100.00;97169.06;5029288;28;105440;-66
2022/07/08 00:12:34;;;;;;;4.03;3.73;;;;;;;15.07;100.00;97165.81;5029931;28;101941;-66
2022/07/08 00:15:02;;;;;;;4.93;4.00;;;;;;;15.06;100.00;97175.72;5034144;28;102848;-66
2022/07/08 00:17:29;;;;;;;4.10;3.80;;;;;;;15.08;100.00;97164.72;5029437;28;101896;-66
2022/07/08 00:19:56;;;;;;;3.93;3.73;;;;;;;15.05;100.00;97170.63;5029506;28;105175;-66
2022/07/08 00:22:25;;;;;;;4.43;3.60;;;;;;;15.07;100.00;97166.63;5028970;28;105514;-66
2022/07/08 00:24:53;;;;;;;4.30;3.63;;;;;;;15.04;100.00;97171.69;5029389;28;101931;-66
2022/07/08 00:27:20;;;;;;;4.57;4.10;;;;;;;15.03;100.00;97159.34;5029278;28;105644;-66
2022/07/08 00:29:47;;;;;;;3.87;3.57;;;;;;;15.03;100.00;97160.16;5029009;28;104353;-66
2022/07/08 00:32:14;;;;;;;3.63;3.33;;;;;;;15.02;100.00;97161.25;5029618;28;102000;-66
2022/07/08 00:34:42;;;;;;;3.90;3.60;;;;;;;14.98;100.00;97154.78;5029658;28;105120;-66
2022/07/08 00:37:09;;;;;;;4.40;4.00;;;;;;;15.00;100.00;97160.66;5033706;28;101708;-66
2022/07/08 00:39:38;;;;;;;4.30;3.90;;;;;;;14.97;100.00;97160.38;5030682;28;102550;-66
2022/07/08 00:42:06;;;;;;;4.23;3.83;;;;;;;14.97;100.00;97155.03;5030000;28;102503;-66
2022/07/08 00:44:34;;;;;;;4.40;3.83;;;;;;;14.96;100.00;97158.78;5030865;28;101850;-66
2022/07/08 00:47:01;;;;;;;3.70;3.50;;;;;;;14.95;100.00;97151.81;5028943;27;102344;-66
2022/07/08 00:49:28;;;;;;;4.40;3.23;;;;;;;14.92;100.00;97158.50;5028159;28;105338;-66
2022/07/08 00:51:55;;;;;;;3.80;3.37;;;;;;;14.92;100.00;97168.38;5030351;27;101743;-66
2022/07/08 00:54:23;;;;;;;4.00;3.53;;;;;;;14.91;100.00;97170.28;5030619;28;102373;-66
2022/07/08 00:56:52;;;;;;;3.80;3.50;;;;;;;14.90;100.00;97170.53;5029908;28;103067;-66
2022/07/08 00:59:21;;;;;;;3.83;3.37;;;;;;;14.90;100.00;97163.31;5033740;27;101835;-66
2022/07/08 01:01:48;;;;;;;4.17;3.73;;;;;;;14.90;100.00;97166.00;5028218;28;103969;-66
2022/07/08 01:04:15;;;;;;;4.27;3.80;;;;;;;14.89;100.00;97168.91;5029155;28;101969;-66
2022/07/08 01:06:42;;;;;;;3.93;3.63;;;;;;;14.89;100.00;97163.56;5029023;28;104090;-66
2022/07/08 01:09:10;;;;;;;3.80;3.50;;;;;;;14.88;100.00;97172.66;5029870;28;103394;-66
2022/07/08 01:11:37;;;;;;;3.67;3.37;;;;;;;14.86;100.00;97161.38;5030027;28;101842;-66
2022/07/08 01:14:06;;;;;;;5.43;3.67;;;;;;;14.85;100.00;97162.47;5030349;28;102394;-66
2022/07/08 01:16:34;;;;;;;4.00;3.70;;;;;;;14.83;100.00;97160.03;5028081;28;105419;-66
2022/07/08 01:19:01;;;;;;;4.03;3.63;;;;;;;14.82;100.00;97168.34;5033773;28;101747;-66
2022/07/08 01:21:29;;;;;;;5.57;3.93;;;;;;;14.81;100.00;97175.56;5029502;28;103261;-66
2022/07/08 01:23:57;;;;;;;5.13;4.63;;;;;;;14.68;100.00;97175.19;5028660;28;102074;-66
2022/07/08 01:26:24;;;;;;;5.23;4.73;;;;;;;14.53;100.00;97178.56;5030201;28;102414;-66
2022/07/08 01:28:51;;;;;;;5.83;5.33;;;;;;;14.38;100.00;97177.66;5029488;28;102782;-66
2022/07/08 01:31:18;;;;;;;5.90;5.43;;;;;;;14.29;100.00;97189.88;5030005;28;101845;-66
2022/07/08 01:33:46;;;;;;;6.23;5.63;;;;;;;14.31;100.00;97182.38;5030012;28;102333;-66
2022/07/08 01:36:13;;;;;;;6.20;5.60;;;;;;;14.20;100.00;97194.88;5028007;28;105967;-66
2022/07/08 01:38:42;;;;;;;9.33;6.53;;;;;;;14.19;100.00;97184.38;5029995;28;101710;-66
2022/07/08 01:41:09;;;;;;;6.93;6.33;;;;;;;14.20;100.00;97184.16;5032699;28;102401;-66
2022/07/08 01:43:36;;;;;;;7.73;6.73;;;;;;;14.18;100.00;97180.09;5029822;28;101957;-66
2022/07/08 01:46:03;;;;;;;10.13;6.87;;;;;;;14.14;100.00;97184.34;5029746;28;102430;-66
2022/07/08 01:48:31;;;;;;;8.17;7.37;;;;;;;14.14;100.00;97176.31;5028871;28;102493;-66
2022/07/08 01:50:58;;;;;;;7.30;6.70;;;;;;;14.14;100.00;97181.66;5029904;28;102098;-66
2022/07/08 01:53:26;;;;;;;7.83;7.13;;;;;;;14.11;100.00;97179.50;5028447;28;103744;-66
2022/07/08 01:55:54;;;;;;;7.70;7.00;;;;;;;14.14;100.00;97187.00;5027542;28;105482;-66
2022/07/08 01:58:21;;;;;;;7.37;6.70;;;;;;;14.13;100.00;97183.53;5029718;27;101904;-66
2022/07/08 02:00:48;;;;;;;8.13;7.43;;;;;;;14.14;100.00;97187.00;5031919;28;105137;-66
2022/07/08 02:03:15;;;;;;;8.63;7.90;;;;;;;14.14;100.00;97187.00;5034721;28;105833;-66
2022/07/08 02:05:42;;;;;;;8.87;8.17;;;;;;;14.11;100.00;97188.31;5031456;28;105133;-66
2022/07/08 02:08:10;;;;;;;8.83;7.93;;;;;;;14.13;100.00;97185.41;5031221;28;105269;-66
2022/07/08 02:13:20;;;;;;;8.83;8.03;;;;;;;14.13;100.00;97186.22;5032448;28;102291;-66
2022/07/08 02:15:47;;;;;;;8.70;7.90;;;;;;;14.14;100.00;97181.66;5031088;28;105133;-66
2022/07/08 02:18:14;;;;;;;9.00;8.20;;;;;;;14.15;100.00;97188.63;5031665;28;102093;-66
2022/07/08 02:20:41;;;;;;;9.03;8.23;;;;;;;14.11;100.00;97188.31;5031254;28;105752;-66
2022/07/08 02:23:09;;;;;;;9.47;8.60;;;;;;;14.13;100.00;97185.41;5032550;28;102992;-66
2022/07/08 02:25:36;;;;;;;9.20;8.30;;;;;;;14.10;100.00;97189.38;5034878;28;101884;-66
2022/07/08 02:28:03;;;;;;;8.60;8.00;;;;;;;14.06;100.00;97192.81;5032113;28;103129;-66
2022/07/08 02:30:32;;;;;;;9.50;8.60;;;;;;;14.04;100.00;97195.75;5032789;28;101802;-66
2022/07/08 02:32:59;;;;;;;9.90;9.00;;;;;;;14.09;100.00;97192.31;5032685;28;102297;-66
2022/07/08 02:35:26;;;;;;;9.70;8.80;;;;;;;14.06;100.00;97196.28;5030621;28;104112;-66
2022/07/08 02:37:53;;;;;;;10.97;9.23;;;;;;;14.08;100.00;97196.03;5032870;28;102074;-66
2022/07/08 02:40:21;;;;;;;9.33;8.63;;;;;;;14.07;100.00;97199.78;5032715;27;102342;-66
2022/07/08 02:42:48;;;;;;;10.00;9.03;;;;;;;14.09;100.00;97201.16;5032039;28;102818;-66
2022/07/08 02:45:15;;;;;;;9.97;8.97;;;;;;;14.10;100.00;97204.63;5032744;28;101825;-66
2022/07/08 02:47:44;;;;;;;10.03;8.87;;;;;;;14.11;100.00;97198.22;5026355;28;104263;-66
2022/07/08 02:50:11;;;;;;;9.00;8.20;;;;;;;14.10;100.00;97209.97;5012184;28;101836;-66
2022/07/08 02:52:38;;;;;;;8.87;7.97;;;;;;;14.12;100.00;97207.88;5012224;28;102406;-66
2022/07/08 02:55:06;;;;;;;8.73;8.03;;;;;;;14.11;100.00;97209.72;5011720;28;102566;-66
2022/07/08 02:57:33;;;;;;;8.83;8.13;;;;;;;14.09;100.00;97213.69;5012347;28;101923;-66
2022/07/08 03:00:00;;;;;;;9.20;8.30;;;;;;;14.11;100.00;97219.63;5010981;28;104058;-66
2022/07/08 03:02:28;;;;;;;9.27;8.57;;;;;;;14.09;100.00;97224.41;5011412;28;103147;-66
2022/07/08 03:04:58;;;;;;;9.70;8.80;;;;;;;14.07;100.00;97226.53;5012309;28;101839;-66
2022/07/08 03:07:25;;;;;;;9.37;8.40;;;;;;;14.07;100.00;97234.56;5012264;28;102023;-66
2022/07/08 03:09:52;;;;;;;9.80;8.93;;;;;;;14.08;100.00;97237.00;5014403;28;103202;-66
2022/07/08 03:12:19;;;;;;;8.70;7.90;;;;;;;14.06;100.00;97236.41;5012132;28;102316;-66
2022/07/08 03:14:46;;;;;;;9.27;8.37;;;;;;;14.04;100.00;97241.22;5011387;28;102554;-66
2022/07/08 03:17:13;;;;;;;9.97;9.10;;;;;;;14.09;100.00;97275.22;5010359;28;101924;-66
2022/07/08 03:19:41;;;;;;;6.93;5.87;;;;;;;13.82;100.00;97280.53;5010724;28;102494;-66
2022/07/08 03:22:10;;;;;;;4.33;2.50;;;;;;;13.25;100.00;97289.09;5011307;28;102632;-66
2022/07/08 03:24:37;;;;;;;6.17;2.87;;;;;;;13.11;100.00;97287.81;5011827;28;102061;-66
2022/07/08 03:27:05;;;;;;;4.23;2.50;;;;;;;12.96;100.00;97284.91;5010337;28;106302;-66
2022/07/08 03:29:32;;;;;;;5.13;2.87;;;;;;;12.93;100.00;97283.50;5014448;28;102567;-66
2022/07/08 03:31:59;;;;;;;5.10;2.37;;;;;;;12.84;100.00;97282.31;5011732;28;102340;-66
2022/07/08 03:34:26;;;;;;;5.27;2.83;;;;;;;12.82;100.00;97294.28;5010803;28;103256;-66
2022/07/08 03:36:53;;;;;;;4.70;2.40;;;;;;;12.75;100.00;97290.97;5011710;28;101874;-66
2022/07/08 03:39:22;;;;;;;6.13;2.73;;;;;;;12.81;100.00;97295.31;5011591;28;102483;-66
2022/07/08 03:41:49;;;;;;;3.33;2.60;;;;;;;12.81;100.00;97298.78;5009708;28;105512;-66
2022/07/08 03:44:16;;;;;;;5.47;2.53;;;;;;;12.82;100.00;97304.94;5011375;28;101845;-66
2022/07/08 03:46:43;;;;;;;3.50;2.50;;;;;;;12.87;100.00;97313.03;5010167;28;103682;-66
2022/07/08 03:49:10;;;;;;;4.27;2.33;;;;;;;12.72;100.00;97316.28;5029709;28;102698;-66
2022/07/08 03:51:37;;;;;;;7.07;2.20;;;;;;;12.74;100.00;97319.50;5035056;28;101922;-66
2022/07/08 03:54:04;;;;;;;3.87;2.07;;;;;;;12.67;100.00;97328.69;5030505;28;101845;-66
2022/07/08 03:56:33;;;;;;;5.93;2.67;;;;;;;12.67;100.00;97334.88;5031461;28;101851;-66
2022/07/08 03:59:00;;;;;;;5.97;2.57;;;;;;;12.68;100.00;97335.66;5031287;28;102526;-66
2022/07/08 04:01:28;;;;;;;7.67;3.10;;;;;;;12.65;100.00;97342.28;5029242;28;104105;-66
2022/07/08 04:03:55;;;;;;;3.80;2.40;;;;;;;12.61;100.00;97351.00;5030018;28;102156;-66
2022/07/08 04:06:22;;;;;;;5.73;3.07;;;;;;;12.70;100.00;97349.59;5029784;28;105897;-66
2022/07/08 04:08:50;;;;;;;5.20;2.80;;;;;;;12.69;100.00;97346.09;5029279;28;105374;-66
2022/07/08 04:11:17;;;;;;;5.87;3.57;;;;;;;12.77;100.00;97350.25;5031277;28;102275;-66
2022/07/08 04:13:46;;;;;;;5.93;2.43;;;;;;;12.72;100.00;97356.31;5034047;28;102542;-66
2022/07/08 04:16:13;;;;;;;7.57;2.90;;;;;;;12.75;100.00;97366.47;5030994;28;101895;-66
2022/07/08 04:18:41;;;;;;;4.23;2.60;;;;;;;12.77;100.00;97374.25;5031127;28;102371;-66
2022/07/08 04:21:08;;;;;;;6.90;3.00;;;;;;;12.78;100.00;97370.53;5028844;28;104831;-66
2022/07/08 04:23:37;;;;;;;4.10;2.60;;;;;;;12.76;100.00;97372.66;5031229;28;102001;-66
2022/07/08 04:26:05;;;;;;;8.20;2.70;;;;;;;12.73;100.00;97381.13;5030871;28;104269;-66
2022/07/08 04:28:32;;;;;;;7.10;2.63;;;;;;;12.77;100.00;97385.75;5028997;28;105238;-66
2022/07/08 04:31:01;;;;;;;5.27;2.93;;;;;;;12.77;100.00;97396.44;5029480;28;102174;-66
2022/07/08 04:33:29;;;;;;;7.50;2.57;;;;;;;12.81;100.00;97396.75;5029379;28;103565;-66
2022/07/08 04:35:56;;;;;;;4.33;2.80;;;;;;;12.93;100.00;97397.50;5033435;27;103738;-66
2022/07/08 04:38:23;;;;;;;6.50;3.03;;;;;;;12.95;100.00;97406.06;5031059;27;102325;-66
2022/07/08 04:40:50;;;;;;;4.63;2.77;;;;;;;12.95;100.00;97412.25;5029960;28;102622;-66
2022/07/08 04:43:17;;;;;;;4.40;2.90;;;;;;;12.91;100.00;97410.31;5029428;28;101933;-66
2022/07/08 04:45:44;;;;;;;6.67;2.97;;;;;;;12.83;100.00;97410.66;5030304;27;102239;-66
2022/07/08 04:48:13;;;;;;;5.67;2.80;;;;;;;12.88;100.00;97410.75;5029662;28;103487;-66
2022/07/08 04:50:42;;;;;;;4.80;2.57;;;;;;;12.88;100.00;97416.94;5030330;28;101693;-66
2022/07/08 04:53:09;;;;;;;5.47;2.13;;;;;;;12.90;100.00;97422.81;5030714;28;102408;-66
2022/07/08 04:55:36;;;;;;;7.40;2.40;;;;;;;12.93;100.00;97427.66;5029807;27;102600;-66
2022/07/08 04:58:05;;;;;;;6.63;2.20;;;;;;;12.92;100.00;97434.06;5032593;28;101799;-66
2022/07/08 05:00:34;;;;;;;3.27;1.80;;;;;;;12.87;100.00;97427.84;5028424;28;104023;-66
2022/07/08 05:03:02;;;;;;;5.53;2.40;;;;;;;12.93;100.00;97434.88;5030197;28;102051;-67
2022/07/08 05:05:31;;;;;;;5.60;2.40;;;;;;;13.03;100.00;97438.56;5030217;28;105024;-68
2022/07/08 05:07:59;;;;;;;4.90;2.43;;;;;;;12.97;100.00;97439.53;5029776;28;102649;-68
2022/07/08 05:10:26;;;;;;;4.73;2.57;;;;;;;12.92;100.00;97443.94;5029066;28;101930;-68
2022/07/08 05:12:54;;;;;;;5.93;2.57;;;;;;;12.83;100.00;97442.69;5030195;28;102434;-68
2022/07/08 05:15:22;;;;;;;7.00;2.57;;;;;;;12.75;100.00;97451.09;5029445;28;102706;-68
2022/07/08 05:17:49;;;;;;;7.70;2.70;;;;;;;12.70;100.00;97446.47;5030408;28;102046;-68
2022/07/08 05:20:17;;;;;;;5.30;2.27;;;;;;;12.62;100.00;97454.03;5032961;28;102293;-68
2022/07/08 05:22:45;;;;;;;6.40;2.20;;;;;;;12.63;100.00;97458.31;5030117;28;101779;-68
2022/07/08 05:25:13;;;;;;;5.37;2.40;;;;;;;12.71;100.00;97455.28;5029753;28;102365;-68
2022/07/08 05:27:41;;;;;;;4.57;2.50;;;;;;;12.87;100.00;97455.31;5029620;28;102890;-68
2022/07/08 05:30:10;;;;;;;5.33;2.00;;;;;;;12.83;100.00;97464.88;5030188;28;101962;-68
2022/07/08 05:32:39;;;;;;;5.90;2.40;;;;;;;12.79;100.00;97460.25;5029896;27;102340;-68
2022/07/08 05:35:07;;;;;;;3.30;1.93;;;;;;;12.96;100.00;97461.94;5031437;28;103953;-68
2022/07/08 05:37:38;;;;;;;3.87;2.10;;;;;;;12.94;100.00;97463.19;5032279;28;101943;-68
2022/07/08 05:40:09;;;;;;;5.60;2.43;;;;;;;12.96;100.00;97463.78;5036709;27;102337;-68
2022/07/08 05:42:36;;;;;;;5.23;2.33;;;;;;;13.04;100.00;97466.88;5031880;28;102003;-68
2022/07/08 05:45:04;;;;;;;7.30;2.43;;;;;;;13.07;100.00;97470.94;5033635;27;102724;-68
2022/07/08 05:47:31;;;;;;;4.73;2.47;;;;;;;13.19;100.00;97477.06;5030560;28;104231;-68
2022/07/08 05:49:59;;;;;;;5.93;2.43;;;;;;;13.10;100.00;97475.81;5032794;28;101721;-68
2022/07/08 05:52:26;;;;;;;5.20;2.47;;;;;;;13.03;100.00;97467.16;5033454;27;102293;-68
2022/07/08 05:54:55;;;;;;;4.07;1.90;;;;;;;12.97;100.00;97468.09;5032722;27;102500;-68
2022/07/08 05:57:23;;;;;;;6.43;1.90;;;;;;;13.03;100.00;97467.16;5015093;28;102140;-68
2022/07/08 05:59:51;;;;;;;2.63;1.80;;;;;;;13.17;100.00;97465.78;5033077;28;102366;-68
2022/07/08 06:02:19;;;;;;;7.27;2.40;;;;;;;13.32;100.00;97456.19;5036041;28;102647;-68
2022/07/08 06:04:46;;;;;;;6.53;2.00;;;;;;;13.39;100.00;97467.53;5031781;28;104842;-68
2022/07/08 06:07:13;;;;;;;6.60;2.10;;;;;;;13.41;100.00;97461.94;5031001;28;104079;-68
2022/07/08 06:09:40;;;;;;;6.87;2.03;;;;;;;13.55;100.00;97465.91;5033199;28;101986;-68
2022/07/08 06:12:08;;;;;;;6.63;2.07;;;;;;;13.55;100.00;97477.41;5033009;28;103962;-68
2022/07/08 06:14:37;;;;;;;7.53;2.60;;;;;;;13.52;100.00;97477.88;5031985;28;105023;-68
2022/07/08 06:17:05;;;;;;;5.10;1.80;;;;;;;13.37;100.00;97488.34;5032842;27;101850;-68
2022/07/08 06:19:32;;;;;;;3.60;1.57;;;;;;;13.33;100.00;97483.72;5032908;28;102522;-68
2022/07/08 06:21:59;;;;;;;6.40;1.97;;;;;;;13.35;100.00;97486.97;5032379;28;102570;-68
2022/07/08 06:24:26;;;;;;;6.57;2.40;;;;;;;13.55;100.00;97497.97;5034679;28;102194;-68
2022/07/08 06:26:53;;;;;;;4.20;2.00;;;;;;;13.51;100.00;97486.97;5030855;28;104111;-68
2022/07/08 06:29:21;;;;;;;3.63;2.13;;;;;;;13.50;100.00;97490.69;5031291;28;101887;-68
2022/07/08 06:31:49;;;;;;;4.63;1.83;;;;;;;13.74;100.00;97492.16;5032822;28;101714;-68
2022/07/08 06:34:17;;;;;;;4.93;2.17;;;;;;;13.78;100.00;97487.13;5030407;28;104416;-68
2022/07/08 06:36:44;;;;;;;5.43;2.00;;;;;;;13.90;100.00;97494.00;5031382;28;101897;-68
2022/07/08 06:39:12;;;;;;;3.67;2.03;;;;;;;13.77;100.00;97490.84;5032568;28;101785;-68
2022/07/08 06:41:39;;;;;;;5.03;1.87;;;;;;;13.76;100.00;97490.06;5030533;28;104145;-68
2022/07/08 06:44:06;;;;;;;4.50;1.83;;;;;;;13.80;100.00;97491.19;5032005;27;101936;-68
2022/07/08 06:46:34;;;;;;;4.33;2.23;;;;;;;13.87;100.00;97485.66;5034787;28;102651;-68
2022/07/08 06:49:02;;;;;;;6.93;2.00;;;;;;;14.10;100.00;97498.84;5032329;28;101932;-68
2022/07/08 06:51:29;;;;;;;6.27;1.80;;;;;;;14.07;100.00;97496.69;5032248;27;102803;-68
2022/07/08 06:56:40;;;;;;;4.83;1.70;;;;;;;14.71;100.00;97498.69;5031191;28;102033;-68
2022/07/08 06:59:07;;;;;;;3.23;1.80;;;;;;;15.00;100.00;97486.69;5031008;28;104865;-68
2022/07/08 07:01:35;;;;;;;4.43;2.00;;;;;;;14.88;100.00;97488.69;5031794;28;102968;-68
2022/07/08 07:04:04;;;;;;;6.73;1.83;;;;;;;14.70;100.00;97486.31;5031015;28;102100;-68
2022/07/08 07:06:31;;;;;;;6.33;2.23;;;;;;;14.90;100.00;97487.38;5030955;28;105382;-68
2022/07/08 07:08:58;;;;;;;4.83;1.70;;;;;;;14.94;100.00;97490.38;5033559;28;105756;-68
2022/07/08 07:11:25;;;;;;;4.53;1.50;;;;;;;15.07;100.00;97489.97;5030843;28;105467;-68
2022/07/08 07:13:52;;;;;;;4.43;1.33;;;;;;;15.04;100.00;97488.59;5029897;28;105347;-68
2022/07/08 07:16:19;;;;;;;5.20;1.70;;;;;;;15.16;100.00;97485.78;5013578;28;102306;-68
2022/07/08 07:18:46;;;;;;;7.00;1.83;;;;;;;15.11;100.00;97493.78;5032335;28;102358;-68
2022/07/08 07:21:15;;;;;;;5.27;1.70;;;;;;;15.45;100.00;97489.84;5029789;28;106604;-69
2022/07/08 07:23:42;;;;;;;4.87;1.80;;;;;;;15.17;100.00;97492.75;5030726;28;101960;-69
2022/07/08 07:26:09;;;;;;;5.07;1.90;;;;;;;15.05;100.00;97502.81;5031934;28;102679;-69
2022/07/08 07:28:36;;;;;;;4.50;1.70;;;;;;;14.78;100.00;97499.28;5029765;28;105539;-69
2022/07/08 07:31:04;;;;;;;6.20;2.00;;;;;;;14.85;100.00;97497.22;5035029;28;102190;-69
2022/07/08 07:33:31;;;;;;;4.87;1.70;;;;;;;15.03;100.00;97503.06;5029940;28;105389;-69
2022/07/08 07:35:57;;;;;;;6.00;1.70;;;;;;;15.13;100.00;97494.31;5030487;28;102096;-68
2022/07/08 07:38:26;;;;;;;3.53;1.47;;;;;;;15.02;100.00;97493.41;5031918;28;102907;-68
2022/07/08 07:40:53;;;;;;;12.77;4.67;;;;;;;15.65;100.00;97498.88;5029481;28;106210;-68
2022/07/08 07:43:20;;;;;;;5.30;2.13;;;;;;;15.82;100.00;97501.44;5031391;28;101924;-68
2022/07/08 07:45:48;;;;;;;2.30;1.53;;;;;;;15.50;100.00;97504.13;5030349;28;104927;-68
2022/07/08 07:48:15;;;;;;;6.07;1.97;;;;;;;15.67;100.00;97495.94;5029222;28;105100;-68
2022/07/08 07:50:42;;;;;;;4.40;2.40;;;;;;;15.87;100.00;97501.50;5034367;28;101731;-68
2022/07/08 07:53:10;;;;;;;6.00;2.60;;;;;;;15.84;100.00;97499.31;5029354;28;104021;-68
2022/07/08 07:55:39;;;;;;;4.10;1.53;;;;;;;15.51;100.00;97505.75;5031170;28;101885;-68
2022/07/08 07:58:06;;;;;;;3.73;1.80;;;;;;;15.68;100.00;97503.75;5031266;27;102836;-68
2022/07/08 08:00:33;;;;;;;5.47;1.50;;;;;;;15.30;100.00;97497.72;5030800;27;102529;-68
2022/07/08 08:03:00;;;;;;;5.97;2.20;;;;;;;16.07;100.00;97504.34;5031154;28;101785;-68
2022/07/08 08:05:27;;;;;;;3.83;1.77;;;;;;;16.12;100.00;97507.03;5029981;28;105246;-68
2022/07/08 08:07:54;;;;;;;4.70;1.80;;;;;;;16.26;100.00;97509.03;5029308;28;103947;-68
2022/07/08 08:10:22;;;;;;;4.60;1.67;;;;;;;16.34;100.00;97513.06;5029853;28;101870;-68
2022/07/08 08:12:50;;;;;;;7.20;2.20;;;;;;;16.64;100.00;97515.97;5033780;28;101733;-68
2022/07/08 08:15:17;;;;;;;2.80;1.20;;;;;;;16.48;100.00;97516.97;5029810;28;101910;-68
2022/07/08 08:17:45;;;;;;;4.23;1.30;;;;;;;16.65;100.00;97512.22;5031149;28;102880;-68
2022/07/08 08:20:13;;;;;;;6.27;1.90;;;;;;;16.70;100.00;97514.94;5028962;28;105663;-68
2022/07/08 08:22:41;;;;;;;2.97;1.43;;;;;;;16.52;100.00;97512.69;5031244;27;102182;-68
2022/07/08 08:25:09;;;;;;;4.90;1.57;;;;;;;17.11;100.00;97522.88;5031018;28;102580;-68
2022/07/08 08:27:40;;;;;;;3.60;1.40;;;;;;;17.24;100.00;97514.34;5030333;27;103164;-68
2022/07/08 08:30:11;;;;;;;3.87;1.40;;;;;;;17.30;100.00;97512.47;5029808;28;101998;-68
2022/07/08 08:32:38;;;;;;;3.90;1.60;;;;;;;16.88;100.00;97517.97;5031221;28;102346;-68
2022/07/08 08:35:07;;;;;;;3.20;1.13;;;;;;;16.68;100.00;97515.19;5033399;27;103265;-68
2022/07/08 08:37:34;;;;;;;4.10;1.30;;;;;;;17.51;100.00;97514.16;5031041;28;102365;-68
2022/07/08 08:40:03;;;;;;;3.13;1.37;;;;;;;17.12;100.00;97519.13;5030223;28;102629;-68
2022/07/08 08:42:32;;;;;;;6.70;1.70;;;;;;;16.55;100.00;97521.03;5030485;28;101895;-68
2022/07/08 08:45:02;;;;;;;3.17;1.20;;;;;;;16.30;100.00;97509.31;5030676;28;102366;-68
2022/07/08 08:47:32;;;;;;;4.07;1.57;;;;;;;16.74;100.00;97516.81;5029302;27;102068;-68
2022/07/08 08:50:53;;;;;;;4.30;1.40;;;;;;;16.92;100.00;97524.44;5030388;28;101704;-68
2022/07/08 08:52:50;;;;;;;5.40;1.80;;;;;;;16.28;100.00;97522.16;5030473;28;102808;-68
2022/07/08 08:55:25;;;;;;;3.80;1.50;;;;;;;15.93;100.00;97524.59;5029698;28;102597;-68
2022/07/08 08:57:53;;;;;;;5.80;2.07;;;;;;;15.63;100.00;97521.66;5034022;28;101684;-68
2022/07/08 09:00:21;;;;;;;4.60;1.47;;;;;;;16.74;100.00;97532.16;5029870;28;103067;-68
2022/07/08 09:02:50;;;;;;;4.23;1.40;;;;;;;16.57;100.00;97532.31;5030336;28;101805;-68
2022/07/08 09:05:17;;;;;;;5.03;1.63;;;;;;;17.17;100.00;97527.22;5028902;28;103960;-68
2022/07/08 09:07:45;;;;;;;4.37;1.60;;;;;;;16.57;100.00;97524.25;5029140;27;102665;-68
2022/07/08 09:10:12;;;;;;;3.30;1.40;;;;;;;16.51;100.00;97521.81;5030255;28;101809;-68
2022/07/08 09:12:39;;;;;;;2.37;1.03;;;;;;;16.64;100.00;97521.34;5028921;28;105217;-68
2022/07/08 09:15:07;;;;;;;6.27;1.50;;;;;;;16.38;100.00;97527.59;5029444;28;102907;-68
2022/07/08 09:17:44;;;;;;;6.20;1.50;;;;;;;16.28;100.00;97522.16;5030486;28;101748;-68
2022/07/08 09:20:13;;;;;;;1.87;1.17;;;;;;;16.23;100.00;97528.31;5031493;28;102743;-68
2022/07/08 09:22:40;;;;;;;6.73;1.90;;;;;;;16.22;100.00;97536.63;5030697;27;101679;-68
2022/07/08 09:25:07;;;;;;;5.47;1.50;;;;;;;16.19;100.00;97537.94;5028627;28;106010;-68
2022/07/08 09:27:35;;;;;;;5.00;1.20;;;;;;;16.40;100.00;97533.56;5029513;28;102541;-68
2022/07/08 09:30:02;;;;;;;5.70;1.27;;;;;;;16.67;100.00;97539.66;5028651;28;101943;-68
2022/07/08 09:32:29;;;;;;;6.47;1.30;;;;;;;17.09;100.00;97533.09;5028661;28;103708;-68
2022/07/08 09:34:57;;;;;;;5.47;1.80;;;;;;;17.49;100.00;97538.63;5029233;28;103272;-68
2022/07/08 09:37:25;;;;;;;4.47;1.60;;;;;;;17.44;100.00;97538.59;5030205;28;101759;-68
2022/07/08 09:39:52;;;;;;;4.63;1.30;;;;;;;17.31;100.00;97540.97;5028436;28;105020;-68
2022/07/08 09:42:19;;;;;;;5.43;1.50;;;;;;;17.22;100.00;97531.81;5031330;28;102086;-68
2022/07/08 09:44:52;;;;;;;5.03;1.70;;;;;;;17.31;100.00;97536.41;5029735;28;102905;-68
2022/07/08 09:47:19;;;;;;;3.63;1.40;;;;;;;17.72;100.00;97540.81;5027534;28;104145;-68
2022/07/08 09:49:48;;;;;;;5.53;1.40;;;;;;;17.05;100.00;97541.97;5028303;28;101968;-68
2022/07/08 09:52:22;;;;;;;3.80;1.50;;;;;;;17.09;100.00;97540.34;5028256;28;105595;-68
2022/07/08 09:55:02;;;;;;;3.67;1.10;;;;;;;17.40;100.00;97539.41;5029302;27;102505;-68
2022/07/08 09:57:29;;;;;;;3.80;1.77;;;;;;;17.39;100.00;97537.81;5029888;28;101784;-68
2022/07/08 09:59:57;;;;;;;2.73;1.20;;;;;;;17.37;100.00;97538.03;5029843;27;102504;-68
2022/07/08 10:02:25;;;;;;;1.90;1.37;;;;;;;17.74;100.00;97537.84;5032379;28;102645;-68
2022/07/08 10:04:53;;;;;;;4.27;1.30;;;;;;;17.93;100.00;97538.97;5029698;28;102400;-68
2022/07/08 10:07:20;;;;;;;3.07;1.40;;;;;;;17.72;100.00;97534.63;5027461;28;105235;-68
2022/07/08 10:09:47;;;;;;;2.90;1.60;;;;;;;17.83;100.00;97539.75;5028387;28;102012;-68
2022/07/08 10:12:19;;;;;;;2.60;1.60;;;;;;;17.50;100.00;97540.22;5029314;27;104009;-68
2022/07/08 10:14:48;;;;;;;4.10;1.63;;;;;;;17.83;100.00;97547.03;5028810;28;104614;-68
2022/07/08 10:17:19;;;;;;;3.00;1.40;;;;;;;18.29;100.00;97535.97;5027981;28;101932;-68
2022/07/08 10:19:48;;;;;;;2.73;1.40;;;;;;;18.39;100.00;97540.56;5031335;27;102345;-68
2022/07/08 10:22:17;;;;;;;3.57;1.40;;;;;;;18.44;100.00;97537.88;5030768;28;105636;-68
2022/07/08 10:24:48;;;;;;;3.67;1.53;;;;;;;18.58;100.00;97533.53;5034738;28;101963;-68
2022/07/08 10:27:17;;;;;;;6.83;1.53;;;;;;;18.74;100.00;97535.13;5031035;28;103787;-68
2022/07/08 10:29:44;;;;;;;3.93;1.50;;;;;;;18.07;100.00;97537.31;5032610;28;101847;-68
2022/07/08 10:32:27;;;;;;;3.27;1.70;;;;;;;17.87;100.00;97543.50;5032820;28;102337;-68
2022/07/08 10:35:09;;;;;;;3.93;1.50;;;;;;;17.86;100.00;97539.22;5030546;28;105460;-68
2022/07/08 10:37:50;;;;;;;4.27;1.60;;;;;;;17.93;100.00;97541.66;5032567;27;101711;-68
2022/07/08 10:40:59;;;;;;;3.50;1.37;;;;;;;18.50;100.00;97537.59;5032814;28;102318;-68
2022/07/08 10:43:29;;;;;;;2.70;1.47;;;;;;;18.75;100.00;97539.44;5032249;27;102870;-68
2022/07/08 10:46:05;;;;;;;3.83;1.30;;;;;;;19.03;100.00;97528.00;5032340;27;101848;-68
2022/07/08 10:48:52;;;;;;;5.37;1.80;;;;;;;19.74;100.00;97527.38;5034657;28;102374;-68
2022/07/08 10:51:58;;;;;;;4.57;1.40;;;;;;;19.05;100.00;97529.34;5032425;27;101734;-68
2022/07/08 10:54:32;;;;;;;4.13;1.50;;;;;;;19.01;100.00;97530.19;5030801;28;103500;-68
2022/07/08 10:57:02;;;;;;;5.93;1.40;;;;;;;18.44;100.00;97536.00;5031780;27;102513;-68
2022/07/08 10:59:32;;;;;;;7.70;1.63;;;;;;;18.41;100.00;97539.22;5032623;28;101824;-68
2022/07/08 11:02:04;;;;;;;3.50;1.20;;;;;;;18.94;100.00;97543.13;5030759;28;103760;-68
2022/07/08 11:04:44;;;;;;;3.97;1.40;;;;;;;18.99;100.00;97533.16;5031801;28;102607;-68
2022/07/08 11:07:26;;;;;;;3.50;1.37;;;;;;;19.07;100.00;97531.75;5032349;28;101805;-68
2022/07/08 11:09:55;;;;;;;3.83;1.77;;;;;;;18.47;100.00;97537.34;5030936;28;105248;-68
2022/07/08 11:12:25;;;;;;;2.10;1.20;;;;;;;19.24;100.00;97530.34;5035057;27;101874;-68
2022/07/08 11:15:13;;;;;;;3.23;1.27;;;;;;;20.16;100.00;97529.50;5031020;28;103596;-68
2022/07/08 11:17:41;;;;;;;5.57;1.80;;;;;;;20.42;100.00;97525.47;5030191;28;105646;-68
2022/07/08 11:20:11;;;;;;;2.67;1.40;;;;;;;20.88;100.00;97526.59;5030845;28;102031;-68
2022/07/08 11:22:39;;;;;;;3.47;1.43;;;;;;;20.54;100.00;97518.59;5030792;28;104377;-68
2022/07/08 11:25:11;;;;;;;3.93;1.60;;;;;;;20.85;100.00;97524.47;5030234;28;105730;-68
2022/07/08 11:27:39;;;;;;;5.40;1.53;;;;;;;20.94;100.00;97536.28;5032403;28;101837;-68